createdAt,value
2022-08-16T00:01:23.676Z,64.80
2022-08-16T00:03:52.647Z,64.95
2022-08-16T00:06:19.545Z,64.52
2022-08-16T00:08:46.053Z,64.19
2022-08-16T00:11:15.399Z,64.99
2022-08-16T00:13:43.791Z,64.91
2022-08-16T00:16:57.796Z,64.90
2022-08-16T00:19:08.549Z,64.49
2022-08-16T00:21:35.286Z,64.56
2022-08-16T00:24:04.677Z,64.46
2022-08-16T00:26:35.767Z,64.40
2022-08-16T00:29:05.332Z,64.47
2022-08-16T00:31:58.843Z,64.15
2022-08-16T00:34:21.289Z,63.99
2022-08-16T00:36:48.053Z,64.07
2022-08-16T00:39:15.739Z,64.51
2022-08-16T00:41:45.544Z,64.66
2022-08-16T00:44:14.310Z,64.83
2022-08-16T00:46:54.011Z,64.99
2022-08-16T00:49:39.521Z,64.47
2022-08-16T00:52:29.663Z,64.77
2022-08-16T00:54:58.617Z,65.55
2022-08-16T00:57:27.450Z,67.50
2022-08-16T01:00:19.927Z,66.21
2022-08-16T01:02:48.966Z,68.08
2022-08-16T01:05:16.136Z,69.64
2022-08-16T01:07:51.805Z,70.82
2022-08-16T01:10:31.380Z,71.41
2022-08-16T01:13:05.487Z,71.56
2022-08-16T01:15:35.347Z,72.80
2022-08-16T01:18:04.854Z,73.43
2022-08-16T01:20:37.913Z,73.07
2022-08-16T01:23:14.543Z,72.82
2022-08-16T01:25:59.940Z,72.97
2022-08-16T01:28:38.791Z,72.04
2022-08-16T01:31:14.976Z,71.47
2022-08-16T01:33:44.432Z,71.57
2022-08-16T01:36:13.143Z,71.20
2022-08-16T01:42:55.338Z,69.28
2022-08-16T01:45:22.941Z,68.54
2022-08-16T01:47:52.280Z,69.05
2022-08-16T01:50:43.556Z,70.12
2022-08-16T01:53:10.227Z,71.84
2022-08-16T01:55:56.708Z,73.38
2022-08-16T01:58:24.036Z,73.67
2022-08-16T02:00:50.772Z,73.01
2022-08-16T02:03:17.627Z,73.57
2022-08-16T02:05:52.264Z,75.61
2022-08-16T02:08:33.412Z,75.39
2022-08-16T02:11:07.728Z,74.94
2022-08-16T02:13:41.705Z,73.43
2022-08-16T02:16:18.864Z,72.68
2022-08-16T02:18:46.820Z,74.27
2022-08-16T02:21:14.247Z,73.89
2022-08-16T02:23:43.249Z,72.69
2022-08-16T02:26:10.059Z,72.88
2022-08-16T02:28:45.318Z,74.72
2022-08-16T02:31:16.065Z,74.73
2022-08-16T02:33:50.183Z,73.40
2022-08-16T02:36:48.087Z,74.04
2022-08-16T02:39:17.315Z,74.44
2022-08-16T02:41:45.899Z,75.64
2022-08-16T02:44:20.640Z,74.42
2022-08-16T02:46:53.856Z,75.08
2022-08-16T02:49:21.747Z,75.31
2022-08-16T02:51:50.212Z,75.32
2022-08-16T02:54:17.004Z,74.48
2022-08-16T02:56:47.930Z,74.25
2022-08-16T02:59:15.038Z,73.78
2022-08-16T03:01:42.497Z,72.24
2022-08-16T03:04:48.911Z,71.43
2022-08-16T03:07:05.046Z,70.47
2022-08-16T03:09:40.799Z,71.02
2022-08-16T03:13:25.453Z,71.25
2022-08-16T03:15:53.442Z,71.77
2022-08-16T03:18:40.193Z,71.97
2022-08-16T03:21:07.530Z,71.78
2022-08-16T03:24:29.863Z,72.83
2022-08-16T03:31:10.582Z,73.19
2022-08-16T03:33:42.036Z,72.57
2022-08-16T03:36:29.957Z,72.48
2022-08-16T03:38:59.706Z,72.81
2022-08-16T03:41:50.006Z,73.09
2022-08-16T03:44:43.439Z,72.62
2022-08-16T03:47:03.561Z,73.96
2022-08-16T03:49:36.610Z,75.04
2022-08-16T03:52:06.093Z,73.56
2022-08-16T03:54:35.860Z,72.38
2022-08-16T03:57:04.992Z,73.37
2022-08-16T03:59:32.942Z,73.19
2022-08-16T04:02:10.563Z,72.96
2022-08-16T04:04:39.657Z,72.62
2022-08-16T04:07:07.405Z,73.01
2022-08-16T04:09:38.531Z,72.90
2022-08-16T04:12:10.666Z,72.24
2022-08-16T04:14:46.422Z,71.98
2022-08-16T04:17:15.366Z,72.58
2022-08-16T04:19:45.661Z,73.33
2022-08-16T04:22:17.388Z,72.56
2022-08-16T04:24:54.765Z,72.36
2022-08-16T04:27:31.499Z,73.43
2022-08-16T04:30:02.909Z,73.39
2022-08-16T04:32:31.714Z,73.28
2022-08-16T04:34:58.519Z,72.91
2022-08-16T04:37:26.788Z,72.58
2022-08-16T04:40:05.635Z,72.58
2022-08-16T04:42:35.850Z,72.59
2022-08-16T04:45:06.847Z,73.94
2022-08-16T04:47:35.758Z,74.40
2022-08-16T04:50:10.942Z,73.83
2022-08-16T04:52:56.827Z,74.22
2022-08-16T04:55:37.637Z,73.75
2022-08-16T04:58:38.279Z,74.04
2022-08-16T05:00:56.990Z,74.64
2022-08-16T05:03:23.910Z,74.66
2022-08-16T05:05:59.381Z,74.64
2022-08-16T05:08:31.960Z,75.57
2022-08-16T05:11:22.642Z,75.64
2022-08-16T05:13:49.563Z,75.32
2022-08-16T05:16:25.446Z,74.55
2022-08-16T05:19:02.207Z,74.95
2022-08-16T05:21:38.350Z,74.56
2022-08-16T05:24:07.367Z,74.87
2022-08-16T05:26:37.530Z,75.24
2022-08-16T05:29:11.046Z,75.23
2022-08-16T05:31:54.308Z,75.43
2022-08-16T05:34:22.493Z,75.18
2022-08-16T05:36:53.006Z,75.28
2022-08-16T05:39:22.341Z,75.53
2022-08-16T05:41:51.725Z,75.18
2022-08-16T05:44:23.509Z,75.08
2022-08-16T05:46:55.903Z,73.24
2022-08-16T05:49:38.651Z,72.14
2022-08-16T05:52:11.576Z,70.49
2022-08-16T05:54:46.691Z,68.93
2022-08-16T05:57:16.355Z,67.28
2022-08-16T05:59:43.905Z,65.57
2022-08-16T06:02:10.361Z,64.35
2022-08-16T06:04:38.519Z,63.17
2022-08-16T06:07:24.531Z,61.60
2022-08-16T06:10:31.907Z,60.51
2022-08-16T06:12:59.290Z,59.72
2022-08-16T06:15:26.467Z,58.93
2022-08-16T06:17:53.638Z,59.72
2022-08-16T06:20:35.176Z,60.75
2022-08-16T06:23:17.104Z,61.00
2022-08-16T06:25:57.293Z,61.44
2022-08-16T06:28:35.779Z,62.78
2022-08-16T06:31:04.650Z,63.33
2022-08-16T06:33:41.147Z,60.93
2022-08-16T06:36:09.255Z,59.93
2022-08-16T06:38:37.878Z,58.48
2022-08-16T06:41:16.351Z,57.13
2022-08-16T06:43:43.261Z,56.57
2022-08-16T06:46:31.437Z,55.36
2022-08-16T06:49:05.256Z,54.64
2022-08-16T06:51:46.468Z,53.98
2022-08-16T06:54:18.912Z,53.89
2022-08-16T06:56:45.780Z,52.69
2022-08-16T06:59:13.980Z,52.49
2022-08-16T07:01:54.520Z,51.39
2022-08-16T07:04:31.937Z,50.38
2022-08-16T07:07:05.796Z,50.35
2022-08-16T07:09:32.755Z,48.93
2022-08-16T07:12:05.391Z,48.66
2022-08-16T07:14:34.995Z,48.36
2022-08-16T07:17:07.889Z,48.62
2022-08-16T07:20:02.582Z,47.49
2022-08-16T07:22:39.112Z,47.51
2022-08-16T07:25:16.825Z,46.84
2022-08-16T07:27:44.235Z,47.06
2022-08-16T07:30:45.538Z,46.54
2022-08-16T07:33:07.250Z,46.04
2022-08-16T07:35:36.037Z,45.85
2022-08-16T07:38:06.146Z,45.51
2022-08-16T07:41:00.339Z,44.70
2022-08-16T07:43:29.029Z,43.77
2022-08-16T07:45:59.444Z,43.65
2022-08-16T07:48:29.075Z,43.13
2022-08-16T07:50:59.558Z,43.17
2022-08-16T07:53:31.556Z,43.02
2022-08-16T07:56:00.287Z,42.62
2022-08-16T07:58:36.344Z,41.99
2022-08-16T08:01:14.931Z,41.27
2022-08-16T08:03:52.653Z,41.39
2022-08-16T08:06:28.477Z,41.19
2022-08-16T08:08:59.922Z,40.76
2022-08-16T08:11:29.448Z,40.98
2022-08-16T08:14:03.497Z,40.62
2022-08-16T08:16:33.434Z,40.87
2022-08-16T08:19:03.863Z,41.12
2022-08-16T08:22:01.035Z,41.35
2022-08-16T08:24:32.001Z,41.60
2022-08-16T08:27:02.224Z,41.21
2022-08-16T08:29:37.470Z,40.96
2022-08-16T08:32:57.882Z,40.35
2022-08-16T08:35:00.218Z,40.60
2022-08-16T08:37:54.130Z,40.82
2022-08-16T08:40:18.727Z,42.20
2022-08-16T08:42:48.021Z,43.34
2022-08-16T08:45:36.058Z,41.69
2022-08-16T08:48:03.526Z,41.10
2022-08-16T08:50:33.902Z,38.91
2022-08-16T08:53:02.831Z,38.85
2022-08-16T08:55:35.257Z,39.29
2022-08-16T08:58:03.593Z,38.75
2022-08-16T09:00:51.468Z,37.84
2022-08-16T09:03:19.213Z,37.55
2022-08-16T09:05:51.503Z,37.30
2022-08-16T09:08:19.878Z,38.11
2022-08-16T09:10:59.258Z,38.95
2022-08-16T09:13:32.950Z,39.07
2022-08-16T09:16:01.445Z,39.73
2022-08-16T09:18:35.742Z,40.80
2022-08-16T09:21:07.087Z,41.71
2022-08-16T09:23:37.421Z,41.93
2022-08-16T09:26:44.498Z,40.98
2022-08-16T09:29:17.034Z,39.43
2022-08-16T09:31:42.090Z,39.18
2022-08-16T09:34:10.518Z,39.08
2022-08-16T09:36:45.024Z,39.87
2022-08-16T09:39:16.250Z,40.87
2022-08-16T09:41:53.794Z,40.94
2022-08-16T09:45:12.406Z,39.76
2022-08-16T09:47:10.347Z,39.87
2022-08-16T09:49:41.050Z,39.77
2022-08-16T09:52:09.534Z,39.25
2022-08-16T09:54:37.814Z,40.42
2022-08-16T09:57:04.916Z,40.96
2022-08-16T09:59:38.533Z,41.83
2022-08-16T10:02:27.753Z,42.60
2022-08-16T10:04:54.363Z,41.81
2022-08-16T10:07:21.351Z,41.10
2022-08-16T10:09:54.986Z,40.33
2022-08-16T10:12:45.956Z,40.26
2022-08-16T10:15:20.912Z,39.19
2022-08-16T10:18:00.654Z,39.64
2022-08-16T10:20:30.518Z,39.07
2022-08-16T10:23:03.666Z,39.02
2022-08-16T10:27:20.710Z,38.11
2022-08-16T10:28:30.478Z,38.18
2022-08-16T10:31:03.565Z,39.27
2022-08-16T10:33:33.459Z,40.73
2022-08-16T10:36:03.981Z,41.21
2022-08-16T10:38:33.161Z,41.37
2022-08-16T10:41:04.405Z,41.08
2022-08-16T10:43:31.159Z,40.58
2022-08-16T10:46:00.763Z,40.09
2022-08-16T10:48:29.068Z,39.12
2022-08-16T10:50:58.658Z,39.17
2022-08-16T10:53:32.842Z,38.53
2022-08-16T10:56:03.408Z,37.57
2022-08-16T10:58:34.563Z,37.92
2022-08-16T11:03:57.334Z,36.95
2022-08-16T11:06:26.953Z,37.13
2022-08-16T11:14:29.786Z,37.10
2022-08-16T11:17:02.672Z,37.35
2022-08-16T11:20:00.733Z,37.79
2022-08-16T11:22:47.060Z,36.57
2022-08-16T11:25:12.515Z,35.98
2022-08-16T11:27:42.017Z,36.07
2022-08-16T11:30:19.908Z,35.33
2022-08-16T11:32:46.928Z,36.22
2022-08-16T11:35:17.953Z,36.10
2022-08-16T11:38:47.121Z,36.70
2022-08-16T11:40:59.017Z,37.09
2022-08-16T11:43:31.717Z,37.59
2022-08-16T11:46:43.572Z,38.07
2022-08-16T11:48:51.705Z,37.67
2022-08-16T11:51:18.459Z,37.18
2022-08-16T11:53:45.797Z,37.47
2022-08-16T11:56:14.741Z,37.20
2022-08-16T11:58:42.770Z,36.70
2022-08-16T12:01:18.074Z,36.76
2022-08-16T12:03:56.950Z,36.33
2022-08-16T12:06:25.113Z,37.23
2022-08-16T12:09:00.841Z,36.10
2022-08-16T12:11:28.993Z,35.15
2022-08-16T12:14:05.697Z,34.46
2022-08-16T12:16:34.307Z,34.78
2022-08-16T12:19:03.284Z,35.18
2022-08-16T12:21:57.814Z,36.48
2022-08-16T12:24:17.814Z,36.65
2022-08-16T12:26:44.442Z,35.50
2022-08-16T12:29:11.235Z,35.06
2022-08-16T12:31:37.713Z,33.98
2022-08-16T12:34:28.906Z,33.72
2022-08-16T12:36:55.861Z,33.64
2022-08-16T12:39:22.398Z,33.49
2022-08-16T12:41:49.697Z,33.09
2022-08-16T12:44:20.029Z,32.70
2022-08-16T12:47:07.901Z,32.83
2022-08-16T12:49:41.738Z,33.42
2022-08-16T12:52:09.225Z,33.07
2022-08-16T12:54:37.302Z,33.17
2022-08-16T12:57:08.371Z,32.83
2022-08-16T12:59:41.051Z,32.52
2022-08-16T13:02:07.862Z,31.65
2022-08-16T13:04:39.234Z,31.27
2022-08-16T13:07:08.649Z,31.58
2022-08-16T13:09:42.720Z,31.57
2022-08-16T13:12:24.938Z,31.29
2022-08-16T13:14:53.348Z,31.92
2022-08-16T13:17:26.336Z,32.22
2022-08-16T13:20:07.118Z,32.37
2022-08-16T13:25:20.863Z,33.12
2022-08-16T13:28:03.459Z,32.78
2022-08-16T13:30:41.855Z,32.60
2022-08-16T13:33:12.687Z,32.68
2022-08-16T13:35:44.567Z,32.63
2022-08-16T13:38:24.340Z,33.00
2022-08-16T13:40:56.811Z,33.76
2022-08-16T13:43:28.851Z,34.29
2022-08-16T13:46:02.832Z,35.24
2022-08-16T13:48:42.968Z,35.46
2022-08-16T13:51:17.334Z,35.41
2022-08-16T13:53:54.686Z,35.58
2022-08-16T13:56:37.110Z,35.82
2022-08-16T13:59:19.465Z,35.16
2022-08-16T14:01:55.532Z,35.09
2022-08-16T14:04:34.203Z,34.71
2022-08-16T14:07:04.332Z,33.32
2022-08-16T14:09:34.306Z,32.79
2022-08-16T14:12:01.392Z,32.19
2022-08-16T14:14:36.219Z,31.81
2022-08-16T14:17:04.784Z,31.52
2022-08-16T14:19:36.425Z,32.13
2022-08-16T14:22:14.444Z,31.66
2022-08-16T14:24:51.906Z,31.87
2022-08-16T14:27:22.108Z,31.96
2022-08-16T14:29:50.064Z,31.94
2022-08-16T14:32:34.116Z,32.78
2022-08-16T14:35:09.790Z,32.61
2022-08-16T14:37:38.179Z,32.77
2022-08-16T14:40:07.364Z,32.77
2022-08-16T14:42:35.948Z,32.75
2022-08-16T14:45:05.278Z,32.87
2022-08-16T14:47:34.840Z,33.25
2022-08-16T14:50:02.015Z,33.00
2022-08-16T14:52:54.096Z,33.24
2022-08-16T14:55:15.494Z,33.66
2022-08-16T14:57:43.389Z,33.30
2022-08-16T15:00:12.799Z,33.54
2022-08-16T15:02:42.295Z,33.25
2022-08-16T15:05:11.409Z,33.04
2022-08-16T15:07:40.152Z,32.81
2022-08-16T15:10:08.658Z,32.57
2022-08-16T15:12:48.542Z,32.20
2022-08-16T15:15:20.311Z,32.25
2022-08-16T15:17:53.728Z,31.83
2022-08-16T15:20:21.521Z,33.12
2022-08-16T15:22:50.236Z,33.26
2022-08-16T15:25:29.399Z,33.50
2022-08-16T15:27:56.901Z,33.95
2022-08-16T15:30:58.015Z,34.51
2022-08-16T15:33:14.971Z,33.92
2022-08-16T15:35:42.956Z,34.78
2022-08-16T15:38:10.277Z,35.07
2022-08-16T15:40:58.674Z,35.25
2022-08-16T15:43:33.750Z,35.31
2022-08-16T15:46:54.286Z,35.33
2022-08-16T15:49:13.396Z,35.29
2022-08-16T15:51:41.162Z,34.70
2022-08-16T15:54:21.284Z,35.63
2022-08-16T15:57:09.644Z,35.56
2022-08-16T15:59:48.840Z,36.06
2022-08-16T16:02:21.686Z,34.92
2022-08-16T16:04:54.948Z,34.32
2022-08-16T16:07:21.821Z,33.96
2022-08-16T16:09:48.693Z,34.59
2022-08-16T16:12:43.680Z,34.89
2022-08-16T16:15:03.236Z,34.54
2022-08-16T16:17:29.959Z,34.79
2022-08-16T16:19:56.421Z,35.35
2022-08-16T16:22:25.323Z,35.33
2022-08-16T16:24:52.988Z,34.58
2022-08-16T16:27:21.928Z,34.90
2022-08-16T16:29:57.747Z,35.48
2022-08-16T16:32:34.400Z,34.94
2022-08-16T16:35:02.235Z,34.32
2022-08-16T16:37:31.018Z,34.39
2022-08-16T16:39:58.632Z,35.20
2022-08-16T16:42:30.138Z,35.78
2022-08-16T16:45:01.245Z,35.58
2022-08-16T16:47:40.653Z,35.72
2022-08-16T16:50:09.625Z,35.95
2022-08-16T16:52:44.095Z,36.74
2022-08-16T16:55:15.520Z,36.35
2022-08-16T16:58:03.296Z,36.71
2022-08-16T17:00:38.170Z,36.80
2022-08-16T17:03:17.099Z,37.33
2022-08-16T17:05:56.908Z,37.04
2022-08-16T17:08:30.687Z,37.68
2022-08-16T17:10:57.675Z,37.51
2022-08-16T17:13:25.022Z,37.38
2022-08-16T17:15:53.952Z,37.85
2022-08-16T17:19:15.123Z,37.62
2022-08-16T17:21:08.958Z,37.83
2022-08-16T17:23:59.723Z,37.99
2022-08-16T17:26:30.086Z,38.08
2022-08-16T17:29:02.321Z,38.14
2022-08-16T17:31:43.176Z,37.80
2022-08-16T17:34:29.005Z,38.09
2022-08-16T17:37:04.962Z,38.39
2022-08-16T17:39:35.454Z,38.50
2022-08-16T17:42:22.358Z,38.79
2022-08-16T17:44:51.875Z,38.81
2022-08-16T17:47:18.349Z,38.87
2022-08-16T17:49:44.945Z,39.15
2022-08-16T17:52:11.990Z,39.32
2022-08-16T17:54:38.464Z,39.25
2022-08-16T17:57:04.888Z,39.62
2022-08-16T17:59:32.085Z,39.56
2022-08-16T18:02:15.436Z,39.61
2022-08-16T18:04:55.587Z,39.89
2022-08-16T18:07:22.244Z,39.91
2022-08-16T18:09:48.684Z,39.88
2022-08-16T18:12:54.531Z,40.30
2022-08-16T18:15:13.427Z,40.33
2022-08-16T18:17:40.569Z,40.29
2022-08-16T18:20:28.847Z,40.54
2022-08-16T18:23:03.299Z,40.56
2022-08-16T18:25:29.957Z,40.59
2022-08-16T18:27:56.386Z,41.01
2022-08-16T18:30:22.836Z,41.36
2022-08-16T18:32:51.067Z,41.71
2022-08-16T18:35:18.976Z,42.00
2022-08-16T18:37:45.570Z,42.16
2022-08-16T18:40:12.956Z,42.51
2022-08-16T18:42:39.524Z,42.27
2022-08-16T18:45:07.014Z,42.14
2022-08-16T18:47:33.465Z,41.99
2022-08-16T18:50:00.401Z,41.73
2022-08-16T18:52:26.924Z,42.05
2022-08-16T18:55:02.920Z,42.69
2022-08-16T18:57:40.479Z,42.96
2022-08-16T19:00:11.299Z,43.19
2022-08-16T19:02:56.950Z,43.17
2022-08-16T19:05:29.171Z,43.53
2022-08-16T19:07:55.600Z,43.69
2022-08-16T19:10:22.858Z,44.03
2022-08-16T19:12:49.524Z,44.79
2022-08-16T19:15:20.494Z,45.26
2022-08-16T19:17:47.419Z,45.16
2022-08-16T19:20:17.708Z,46.18
2022-08-16T19:25:48.388Z,46.16
2022-08-16T19:28:49.841Z,46.83
2022-08-16T19:31:23.679Z,46.76
2022-08-16T19:33:54.856Z,46.98
2022-08-16T19:36:31.876Z,46.76
2022-08-16T19:39:07.219Z,46.89
2022-08-16T19:41:37.586Z,47.40
2022-08-16T19:44:05.710Z,47.33
2022-08-16T19:46:32.319Z,47.49
2022-08-16T19:48:58.991Z,47.29
2022-08-16T19:51:25.488Z,47.42
2022-08-16T19:53:51.922Z,47.56
2022-08-16T19:56:18.672Z,47.73
2022-08-16T19:59:08.787Z,48.19
2022-08-16T20:01:32.359Z,48.44
2022-08-16T20:03:58.770Z,48.88
2022-08-16T20:06:37.492Z,49.26
2022-08-16T20:09:05.615Z,49.20
2022-08-16T20:11:32.516Z,48.99
2022-08-16T20:13:59.424Z,49.37
2022-08-16T20:16:26.080Z,49.68
2022-08-16T20:18:52.679Z,50.04
2022-08-16T20:21:19.440Z,50.74
2022-08-16T20:23:46.175Z,50.67
2022-08-16T20:26:12.710Z,51.33
2022-08-16T20:28:52.286Z,51.12
2022-08-16T20:31:20.213Z,50.74
2022-08-16T20:33:46.770Z,50.93
2022-08-16T20:36:16.016Z,51.35
2022-08-16T20:38:45.729Z,50.99
2022-08-16T20:41:12.637Z,51.54
2022-08-16T20:43:39.079Z,51.52
2022-08-16T20:46:05.651Z,51.49
2022-08-16T20:48:32.094Z,51.94
2022-08-16T20:50:58.519Z,52.13
2022-08-16T20:53:25.082Z,51.83
2022-08-16T20:55:51.798Z,52.19
2022-08-16T20:58:18.368Z,52.17
2022-08-16T21:00:45.433Z,52.49
2022-08-16T21:03:13.830Z,52.77
2022-08-16T21:05:40.904Z,52.75
2022-08-16T21:08:52.787Z,53.48
2022-08-16T21:10:54.432Z,53.35
2022-08-16T21:13:20.973Z,53.65
2022-08-16T21:15:47.970Z,54.07
2022-08-16T21:18:14.503Z,53.75
2022-08-16T21:20:41.166Z,53.92
2022-08-16T21:23:09.931Z,53.65
2022-08-16T21:25:58.161Z,53.87
2022-08-16T21:28:38.796Z,54.26
2022-08-16T21:31:14.075Z,54.26
2022-08-16T21:33:40.888Z,54.80
2022-08-16T21:36:07.761Z,54.24
2022-08-16T21:38:34.290Z,54.44
2022-08-16T21:41:03.617Z,54.23
2022-08-16T21:43:33.190Z,54.86
2022-08-16T21:46:01.958Z,56.49
2022-08-16T21:48:33.416Z,57.52
2022-08-16T21:51:01.300Z,58.52
2022-08-16T21:53:29.397Z,57.69
2022-08-16T21:55:58.405Z,57.68
2022-08-16T21:58:26.014Z,56.88
2022-08-16T22:00:53.090Z,56.58
2022-08-16T22:03:20.998Z,56.40
2022-08-16T22:06:13.188Z,56.64
2022-08-16T22:08:39.575Z,56.78
2022-08-16T22:11:20.235Z,57.33
2022-08-16T22:13:51.258Z,57.23
2022-08-16T22:16:29.331Z,56.95
2022-08-16T22:18:55.923Z,56.66
2022-08-16T22:21:22.887Z,56.65
2022-08-16T22:23:56.650Z,56.87
2022-08-16T22:26:31.771Z,56.64
2022-08-16T22:29:00.787Z,56.98
2022-08-16T22:31:27.418Z,57.38
2022-08-16T22:33:53.929Z,57.17
2022-08-16T22:36:20.486Z,57.23
2022-08-16T22:38:56.397Z,57.27
2022-08-16T22:41:25.099Z,57.70
2022-08-16T22:43:51.864Z,57.67
2022-08-16T22:46:19.354Z,57.92
2022-08-16T22:48:46.065Z,58.10
2022-08-16T22:51:12.637Z,58.05
2022-08-16T22:53:39.095Z,57.98
2022-08-16T22:56:05.702Z,57.93
2022-08-16T22:58:36.581Z,58.15
2022-08-16T23:01:06.190Z,58.42
2022-08-16T23:03:33.358Z,58.48
2022-08-16T23:06:00.692Z,58.54
2022-08-16T23:08:39.199Z,58.44
2022-08-16T23:11:13.768Z,58.66
2022-08-16T23:13:52.901Z,58.89
2022-08-16T23:16:24.883Z,58.62
2022-08-16T23:18:57.388Z,59.23
2022-08-16T23:21:24.284Z,60.11
2022-08-16T23:23:53.286Z,60.73
2022-08-16T23:26:44.235Z,60.20
2022-08-16T23:29:15.897Z,60.20
2022-08-16T23:31:54.083Z,60.37
2022-08-16T23:34:21.947Z,60.92
2022-08-16T23:36:48.456Z,61.81
2022-08-16T23:39:15.827Z,62.78
2022-08-16T23:41:43.756Z,61.88
2022-08-16T23:44:42.223Z,62.38
2022-08-16T23:46:57.390Z,62.89
2022-08-16T23:49:56.712Z,61.95
2022-08-16T23:52:10.516Z,62.40
2022-08-16T23:54:36.988Z,62.51
2022-08-16T23:57:03.613Z,62.24
2022-08-16T23:59:30.194Z,61.67
